Holden, Canada
Current Conditions -  °F | °C
As of 5:00 PM on Thursday 18 Dec 2014 (Local Time) from CYEG Reporting Station
Few Clouds Few Clouds  
Wind Chill:   Ceiling: Unl
Heat Index: 14°   Visibility: 8mi
Dew Point: 12°   Wind: 9mph
Humidity: 93%   Direction: 130°SE
Pressure: 29.82"   Gusts: NA
Location:  53.23°N, 112.23°W
Report Text: CYEG 190000Z 13008KT 8SM FEW140 FEW250 M10/M11 A2982 RMK AC1CI1 CI TR BR SLP148
Loading
Personal Weather Stations






























Interactive Weather Map New forecast layout! Learn more

10-Day Weather Forecast

Advertisements
Track Severe Weather on mobile